Time;durP1;ratioP1;P1;durP2;ratioP2;P2;SDS_P1;SDS_P2;PMS_P1;PMS_P2;Temp;Humidity;BMP_temperature;BMP_pressure;BME280_temperature;BME280_humidity;BME280_pressure;Samples;Min_cycle;Max_cycle;Signal;HPM_P1;HPM_P2
2021/12/20 00:00:21;;;;;;;;;;;;;;;-1.46;79.13;94744.34;5033295;28;1042;-45
2021/12/20 00:02:49;;;;;;;;;;;;;;;-1.62;77.03;94747.13;5033030;28;1056;-46
2021/12/20 00:05:16;;;;;;;;;;;;;;;-1.68;77.91;94755.38;5033264;28;1009;-46
2021/12/20 00:07:42;;;;;;;;;;;;;;;-1.70;78.11;94746.78;5032920;28;1045;-46
2021/12/20 00:10:08;;;;;;;;;;;;;;;-1.67;78.45;94751.81;5033424;28;1080;-46
2021/12/20 00:12:34;;;;;;;;;;;;;;;-1.62;79.07;94752.38;5049679;28;1206;-46
2021/12/20 00:15:00;;;;;;;;;;;;;;;-1.64;78.63;94746.38;5053212;28;986;-46
2021/12/20 00:17:26;;;;;;;;;;;;;;;-1.60;77.88;94750.50;5052776;28;1996;-45
2021/12/20 00:19:52;;;;;;;;;;;;;;;-1.45;78.64;94754.75;5056890;28;1395;-46
2021/12/20 00:22:18;;;;;;;;;;;;;;;-1.66;77.21;94766.59;5056655;28;1253;-45
2021/12/20 00:24:44;;;;;;;;;;;;;;;-1.77;78.07;94751.56;5056983;28;989;-45
2021/12/20 00:27:12;;;;;;;;;;;;;;;-1.67;79.08;94757.91;5057025;28;966;-45
2021/12/20 00:29:38;;;;;;;;;;;;;;;-1.66;79.02;94756.97;5057051;28;970;-46
2021/12/20 00:32:04;;;;;;;;;;;;;;;-1.88;78.33;94759.25;5056881;28;1099;-46
2021/12/20 00:34:30;;;;;;;;;;;;;;;-1.89;78.71;94758.41;5056804;28;990;-46
2021/12/20 00:37:02;;;;;;;;;;;;;;;-1.77;79.68;94756.78;5056419;28;1981;-46
2021/12/20 00:42:13;;;;;;;;;;;;;;;-1.79;80.41;94762.13;5056888;28;974;-45
2021/12/20 00:44:39;;;;;;;;;;;;;;;-1.74;78.00;94763.66;5056473;28;1033;-46
2021/12/20 00:47:06;;;;;;;;;;;;;;;-1.63;79.04;94758.53;5056271;28;1280;-46
2021/12/20 00:49:32;;;;;;;;;;;;;;;-1.70;77.82;94759.88;5056469;28;997;-46
2021/12/20 00:51:58;;;;;;;;;;;;;;;-1.83;77.90;94759.81;5056343;28;1096;-45
2021/12/20 00:54:24;;;;;;;;;;;;;;;-1.95;78.70;94769.28;5056323;28;1049;-46
2021/12/20 00:56:50;;;;;;;;;;;;;;;-1.97;79.15;94760.66;5056122;28;1993;-46
2021/12/20 00:59:17;;;;;;;;;;;;;;;-1.90;78.67;94774.22;5056150;28;935;-46
2021/12/20 01:01:43;;;;;;;;;;;;;;;-1.87;78.95;94776.66;5056104;28;1052;-46
2021/12/20 01:04:09;;;;;;;;;;;;;;;-1.90;78.28;94776.84;5056400;28;1101;-46
2021/12/20 01:06:35;;;;;;;;;;;;;;;-2.04;79.13;94777.69;5056283;28;1064;-46
2021/12/20 01:09:02;;;;;;;;;;;;;;;-1.84;79.26;94776.44;5056087;28;967;-46
2021/12/20 01:11:29;;;;;;;;;;;;;;;-1.83;77.79;94763.25;5040890;28;1210;-44
2021/12/20 01:13:57;;;;;;;;;;;;;;;-2.01;78.15;94773.13;5016009;28;1089;-45
2021/12/20 01:16:31;;;;;;;;;;;;;;;-2.03;78.83;94761.03;5016420;28;1071;-46
2021/12/20 01:18:57;;;;;;;;;;;;;;;-2.06;78.51;94748.97;5016230;28;1910;-46
2021/12/20 01:21:24;;;;;;;;;;;;;;;-2.17;78.36;94754.03;5016198;28;1107;-46
2021/12/20 01:23:50;;;;;;;;;;;;;;;-2.17;79.04;94754.84;5016189;28;1021;-46
2021/12/20 01:26:16;;;;;;;;;;;;;;;-2.08;79.03;94744.78;5016007;28;1265;-46
2021/12/20 01:28:43;;;;;;;;;;;;;;;-2.00;78.71;94734.66;5015786;28;1038;-45
2021/12/20 01:31:10;;;;;;;;;;;;;;;-2.01;77.67;94738.19;5014715;28;1045;-46
2021/12/20 01:33:36;;;;;;;;;;;;;;;-2.26;78.25;94739.69;5016023;28;1033;-45
2021/12/20 01:36:02;;;;;;;;;;;;;;;-2.29;78.86;94736.47;5016019;28;997;-46
2021/12/20 01:38:28;;;;;;;;;;;;;;;-2.33;77.86;94742.78;5015745;28;1910;-46
2021/12/20 01:40:54;;;;;;;;;;;;;;;-2.56;78.78;94755.53;5015809;28;1021;-46
2021/12/20 01:43:20;;;;;;;;;;;;;;;-2.55;79.25;94744.09;5015642;28;1223;-45
2021/12/20 01:45:50;;;;;;;;;;;;;;;-2.35;79.62;94753.38;5015977;28;1043;-46
2021/12/20 01:48:18;;;;;;;;;;;;;;;-2.28;79.34;94752.06;5015796;28;1061;-46
2021/12/20 01:53:12;;;;;;;;;;;;;;;-2.07;78.30;94751.69;5015517;28;1045;-45
2021/12/20 01:55:38;;;;;;;;;;;;;;;-2.04;78.64;94747.09;5015431;28;985;-46
2021/12/20 01:58:04;;;;;;;;;;;;;;;-1.99;78.69;94733.72;5015284;28;1933;-46
2021/12/20 02:00:30;;;;;;;;;;;;;;;-2.10;77.07;94738.78;5015044;28;1075;-46
2021/12/20 02:02:58;;;;;;;;;;;;;;;-2.53;77.74;94738.78;5015575;28;996;-46
2021/12/20 02:05:44;;;;;;;;;;;;;;;-2.72;78.60;94726.78;5015469;28;978;-46
2021/12/20 02:08:23;;;;;;;;;;;;;;;-2.47;78.80;94733.16;5015359;28;1959;-46
2021/12/20 02:10:50;;;;;;;;;;;;;;;-2.39;78.22;94726.53;5019575;28;1213;-46
2021/12/20 02:13:17;;;;;;;;;;;;;;;-2.58;77.27;94733.81;5054864;28;1228;-46
2021/12/20 02:15:43;;;;;;;;;;;;;;;-2.52;78.43;94724.75;5054811;28;1057;-46
2021/12/20 02:18:09;;;;;;;;;;;;;;;-2.40;78.60;94713.53;5054983;28;1910;-45
2021/12/20 02:20:36;;;;;;;;;;;;;;;-2.32;79.04;94713.06;5054518;28;1188;-46
2021/12/20 02:23:02;;;;;;;;;;;;;;;-2.25;78.98;94715.22;5054678;28;1033;-45
2021/12/20 02:25:29;;;;;;;;;;;;;;;-2.23;78.96;94722.97;5054337;28;1288;-46
2021/12/20 02:28:03;;;;;;;;;;;;;;;-2.24;78.14;94722.16;5054763;28;954;-46
2021/12/20 02:38:27;;;;;;;;;;;;;;;-2.46;78.80;94716.53;5054346;28;1979;-46
2021/12/20 02:41:02;;;;;;;;;;;;;;;-2.41;78.97;94706.59;5054014;28;1030;-46
2021/12/20 02:43:29;;;;;;;;;;;;;;;-2.47;77.78;94714.84;5054514;28;1006;-45
2021/12/20 02:46:00;;;;;;;;;;;;;;;-2.72;78.45;94718.09;5053990;28;1053;-46
2021/12/20 02:48:26;;;;;;;;;;;;;;;-2.76;78.25;94717.44;5054493;28;997;-45
2021/12/20 02:50:55;;;;;;;;;;;;;;;-2.66;78.79;94723.78;5053830;28;1053;-45
2021/12/20 02:53:21;;;;;;;;;;;;;;;-2.63;78.99;94731.47;5054280;28;1017;-46
2021/12/20 02:55:47;;;;;;;;;;;;;;;-2.51;78.98;94735.13;5053841;28;1097;-46
2021/12/20 02:58:14;;;;;;;;;;;;;;;-2.24;79.00;94732.63;5054025;28;1914;-45
2021/12/20 03:00:40;;;;;;;;;;;;;;;-2.02;78.63;94734.75;5053753;28;1069;-46
2021/12/20 03:03:07;;;;;;;;;;;;;;;-2.19;78.63;94748.03;5053752;28;1038;-46
2021/12/20 03:05:33;;;;;;;;;;;;;;;-2.42;76.97;94759.91;5053637;28;915;-46
2021/12/20 03:08:00;;;;;;;;;;;;;;;-2.45;78.41;94744.38;5054033;28;1037;-46
2021/12/20 03:10:28;;;;;;;;;;;;;;;-2.47;78.57;94751.50;5053837;28;1126;-45
2021/12/20 03:12:55;;;;;;;;;;;;;;;-2.19;79.14;94750.66;5014919;28;1217;-46
2021/12/20 03:15:24;;;;;;;;;;;;;;;-2.10;78.78;94746.66;5013881;28;978;-46
2021/12/20 03:17:57;;;;;;;;;;;;;;;-2.28;78.28;94751.22;5013826;28;1902;-45
2021/12/20 03:20:23;;;;;;;;;;;;;;;-2.40;77.87;94764.13;5014182;28;977;-46
2021/12/20 03:22:49;;;;;;;;;;;;;;;-2.37;78.75;94766.56;5013844;28;1094;-45
2021/12/20 03:25:15;;;;;;;;;;;;;;;-2.37;78.96;94757.88;5014169;28;978;-46
2021/12/20 03:27:41;;;;;;;;;;;;;;;-2.18;79.68;94766.28;5014145;28;1006;-45
2021/12/20 03:30:09;;;;;;;;;;;;;;;-2.09;78.70;94756.16;5013858;28;1011;-46
2021/12/20 03:32:35;;;;;;;;;;;;;;;-2.03;79.21;94751.41;5013792;28;975;-46
2021/12/20 03:35:01;;;;;;;;;;;;;;;-1.76;79.05;94748.00;5013637;28;1030;-46
2021/12/20 03:37:27;;;;;;;;;;;;;;;-1.67;79.33;94747.44;5013840;28;1910;-46
2021/12/20 03:39:53;;;;;;;;;;;;;;;-1.65;78.79;94748.16;5013650;28;1109;-46
2021/12/20 03:42:19;;;;;;;;;;;;;;;-1.63;78.77;94753.28;5013821;28;1010;-46
2021/12/20 03:44:46;;;;;;;;;;;;;;;-1.60;79.11;94750.50;5013632;28;1092;-46
2021/12/20 03:47:12;;;;;;;;;;;;;;;-1.60;78.47;94750.50;5013434;28;1046;-45
2021/12/20 03:49:40;;;;;;;;;;;;;;;-1.63;78.80;94740.19;5013848;28;1062;-46
2021/12/20 03:52:07;;;;;;;;;;;;;;;-1.61;79.63;94748.81;5013306;28;998;-45
2021/12/20 03:54:33;;;;;;;;;;;;;;;-1.62;80.98;94744.50;5013226;28;1887;-46
2021/12/20 03:56:59;;;;;;;;;;;;;;;-1.52;80.47;94748.22;5013279;28;1910;-46
2021/12/20 03:59:27;;;;;;;;;;;;;;;-1.51;80.10;94751.69;5013718;28;1037;-46
2021/12/20 04:01:54;;;;;;;;;;;;;;;-1.61;80.31;94740.97;5013180;28;1026;-46
2021/12/20 04:04:20;;;;;;;;;;;;;;;-1.53;79.91;94753.56;5013510;28;1888;-46
2021/12/20 04:06:46;;;;;;;;;;;;;;;-1.41;79.65;94758.03;5013412;28;1065;-45
2021/12/20 04:09:12;;;;;;;;;;;;;;;-1.32;79.63;94753.97;5013581;28;1029;-45
2021/12/20 04:11:38;;;;;;;;;;;;;;;-1.25;79.71;94757.88;5031111;28;1210;-46
2021/12/20 04:14:04;;;;;;;;;;;;;;;-1.23;79.70;94763.88;5052904;28;1022;-46
2021/12/20 04:16:30;;;;;;;;;;;;;;;-1.24;80.06;94764.81;5053062;28;1014;-46
2021/12/20 04:18:56;;;;;;;;;;;;;;;-1.13;79.22;94767.56;5052811;28;1898;-46
2021/12/20 04:21:22;;;;;;;;;;;;;;;-1.08;79.06;94768.13;5052793;28;1329;-46
2021/12/20 04:23:48;;;;;;;;;;;;;;;-0.98;79.11;94774.44;5052997;28;1073;-45
2021/12/20 04:26:14;;;;;;;;;;;;;;;-0.89;79.56;94778.25;5053041;28;1029;-46
2021/12/20 04:28:41;;;;;;;;;;;;;;;-0.76;79.28;94764.31;5052770;28;1880;-46
2021/12/20 04:31:07;;;;;;;;;;;;;;;-0.64;77.98;94777.47;5052594;28;1050;-46
2021/12/20 04:33:33;;;;;;;;;;;;;;;-0.53;78.96;94782.00;5053113;28;982;-46
2021/12/20 04:35:59;;;;;;;;;;;;;;;-0.46;79.25;94777.16;5052853;28;954;-46
2021/12/20 04:38:28;;;;;;;;;;;;;;;-0.36;78.91;94780.00;5052762;28;1979;-45
2021/12/20 04:40:54;;;;;;;;;;;;;;;-0.34;78.91;94778.13;5052810;28;1120;-46
2021/12/20 04:43:20;;;;;;;;;;;;;;;-0.31;78.96;94775.28;5052727;28;1021;-46
2021/12/20 04:45:46;;;;;;;;;;;;;;;-0.24;78.20;94779.19;5052602;28;1441;-46
2021/12/20 04:48:12;;;;;;;;;;;;;;;-0.17;77.87;94764.69;5052780;28;1006;-46
2021/12/20 04:50:38;;;;;;;;;;;;;;;-0.16;77.78;94770.78;5052842;28;1054;-45
2021/12/20 04:53:05;;;;;;;;;;;;;;;-0.17;79.14;94769.09;5052663;28;1203;-46
2021/12/20 04:55:32;;;;;;;;;;;;;;;-0.18;79.10;94775.31;5052890;28;962;-46
2021/12/20 04:57:58;;;;;;;;;;;;;;;-0.09;79.06;94775.50;5052150;28;1914;-46
2021/12/20 05:00:26;;;;;;;;;;;;;;;0.01;78.28;94775.72;5035127;28;1060;-46
2021/12/20 05:02:52;;;;;;;;;;;;;;;0.17;77.32;94780.72;5052516;28;1029;-45
2021/12/20 05:05:18;;;;;;;;;;;;;;;0.39;77.41;94780.06;5055425;28;1040;-45
2021/12/20 05:07:46;;;;;;;;;;;;;;;0.58;76.54;94782.22;5056169;28;1127;-46
2021/12/20 05:10:23;;;;;;;;;;;;;;;0.64;76.07;94786.22;5056087;28;1891;-46
2021/12/20 05:12:49;;;;;;;;;;;;;;;0.71;77.24;94795.34;5018159;28;1352;-46
2021/12/20 05:15:15;;;;;;;;;;;;;;;0.86;77.10;94796.06;5016552;28;1358;-46
2021/12/20 05:17:41;;;;;;;;;;;;;;;1.02;76.77;94796.59;5015964;28;1910;-46
2021/12/20 05:20:07;;;;;;;;;;;;;;;1.03;77.26;94805.34;5016428;28;1025;-45
2021/12/20 05:22:33;;;;;;;;;;;;;;;0.77;76.89;94808.06;5015839;28;1294;-46
2021/12/20 05:24:59;;;;;;;;;;;;;;;0.64;77.30;94802.84;5016022;28;1045;-46
2021/12/20 05:27:25;;;;;;;;;;;;;;;0.74;78.19;94808.28;5015683;28;1031;-46
2021/12/20 05:29:51;;;;;;;;;;;;;;;1.00;77.98;94811.66;5015967;28;1030;-46
2021/12/20 05:32:17;;;;;;;;;;;;;;;1.24;77.76;94818.75;5015776;28;1234;-46
2021/12/20 05:34:43;;;;;;;;;;;;;;;1.43;77.34;94820.88;5016051;28;1053;-45
2021/12/20 05:37:10;;;;;;;;;;;;;;;1.53;77.18;94821.84;5015809;28;1991;-46
2021/12/20 05:39:36;;;;;;;;;;;;;;;1.68;76.78;94818.06;5016048;28;1058;-45
2021/12/20 05:42:02;;;;;;;;;;;;;;;1.84;76.55;94824.81;5015611;28;1046;-45
2021/12/20 05:44:28;;;;;;;;;;;;;;;1.96;75.85;94834.44;5015938;28;1010;-46
2021/12/20 05:46:54;;;;;;;;;;;;;;;1.99;76.47;94831.56;5015641;28;1081;-46
2021/12/20 05:49:20;;;;;;;;;;;;;;;2.06;75.90;94834.56;5015569;28;1037;-45
2021/12/20 05:51:46;;;;;;;;;;;;;;;2.13;75.79;94834.00;5015547;28;1014;-45
2021/12/20 05:54:12;;;;;;;;;;;;;;;2.21;75.44;94830.75;5015682;28;985;-45
2021/12/20 05:56:38;;;;;;;;;;;;;;;2.31;74.79;94836.16;5015600;28;1073;-45
2021/12/20 05:59:04;;;;;;;;;;;;;;;2.40;74.69;94845.19;5015426;28;1970;-45
2021/12/20 06:01:31;;;;;;;;;;;;;;;2.43;74.81;94848.41;5015596;28;962;-46
2021/12/20 06:03:57;;;;;;;;;;;;;;;2.44;74.69;94859.81;5015150;28;1050;-45
2021/12/20 06:06:26;;;;;;;;;;;;;;;2.45;74.37;94854.41;5015292;28;1038;-45
2021/12/20 06:08:52;;;;;;;;;;;;;;;2.48;74.68;94851.50;5015026;28;1877;-45
2021/12/20 06:11:18;;;;;;;;;;;;;;;2.48;74.29;94858.59;5027862;28;1163;-46
2021/12/20 06:13:44;;;;;;;;;;;;;;;2.20;74.33;94868.66;5054897;28;1057;-45
2021/12/20 06:16:10;;;;;;;;;;;;;;;1.94;75.44;94873.28;5036503;28;1989;-45
2021/12/20 06:18:36;;;;;;;;;;;;;;;1.93;75.62;94864.50;5054471;28;1914;-45
2021/12/20 06:21:02;;;;;;;;;;;;;;;2.10;75.40;94859.75;5054643;28;1072;-46
2021/12/20 06:23:28;;;;;;;;;;;;;;;2.26;75.15;94881.38;5054759;28;1056;-45
2021/12/20 06:25:54;;;;;;;;;;;;;;;2.36;74.59;94891.22;5054571;28;1049;-45
2021/12/20 06:28:20;;;;;;;;;;;;;;;2.37;74.60;94890.25;5054293;28;1196;-46
2021/12/20 06:30:47;;;;;;;;;;;;;;;2.32;74.47;94895.91;5054657;28;1050;-45
2021/12/20 06:33:13;;;;;;;;;;;;;;;2.27;74.67;94887.47;5054606;28;1058;-45
2021/12/20 06:35:39;;;;;;;;;;;;;;;2.30;74.97;94893.38;5054746;28;1005;-45
2021/12/20 06:38:07;;;;;;;;;;;;;;;2.30;74.79;94892.53;5054251;28;1910;-46
2021/12/20 06:40:34;;;;;;;;;;;;;;;2.40;74.90;94896.13;5054246;28;1018;-45
2021/12/20 06:43:01;;;;;;;;;;;;;;;2.46;75.16;94882.47;5054432;28;1018;-45
2021/12/20 06:45:29;;;;;;;;;;;;;;;2.49;74.62;94894.59;5054130;28;1400;-45
2021/12/20 06:47:55;;;;;;;;;;;;;;;2.61;74.02;94896.28;5054446;28;996;-45
2021/12/20 06:50:21;;;;;;;;;;;;;;;2.71;74.02;94906.97;5054292;28;1052;-45
2021/12/20 06:52:47;;;;;;;;;;;;;;;2.77;73.87;94890.66;5054071;28;1093;-45
2021/12/20 06:55:13;;;;;;;;;;;;;;;2.84;73.59;94888.38;5054178;28;942;-45
2021/12/20 06:57:40;;;;;;;;;;;;;;;2.88;73.24;94882.75;5054117;28;1910;-45
2021/12/20 07:00:07;;;;;;;;;;;;;;;2.89;73.15;94880.94;5053783;28;1018;-46
2021/12/20 07:02:33;;;;;;;;;;;;;;;2.95;72.93;94888.38;5054231;28;1046;-45
2021/12/20 07:04:59;;;;;;;;;;;;;;;2.93;72.98;94880.56;5053712;28;1084;-45
2021/12/20 07:07:25;;;;;;;;;;;;;;;2.89;73.16;94879.13;5054165;28;1034;-46
2021/12/20 07:09:51;;;;;;;;;;;;;;;2.88;73.12;94882.75;5053819;28;1049;-44
2021/12/20 07:12:17;;;;;;;;;;;;;;;2.97;73.23;94881.16;5025403;28;1154;-45
2021/12/20 07:14:43;;;;;;;;;;;;;;;3.06;73.12;94884.88;5014205;28;1041;-45
2021/12/20 07:17:09;;;;;;;;;;;;;;;2.86;74.12;94887.28;5014168;28;1911;-45
2021/12/20 07:19:35;;;;;;;;;;;;;;;2.62;74.79;94889.19;5013872;28;1271;-45
2021/12/20 07:22:01;;;;;;;;;;;;;;;2.81;74.28;94893.88;5013739;28;1288;-46
2021/12/20 07:24:27;;;;;;;;;;;;;;;3.07;73.52;94894.47;5014036;28;1085;-45
2021/12/20 07:26:53;;;;;;;;;;;;;;;3.32;72.37;94894.22;5013737;28;1082;-45
2021/12/20 07:29:19;;;;;;;;;;;;;;;3.48;71.87;94898.25;5013193;28;1998;-44
2021/12/20 07:31:45;;;;;;;;;;;;;;;3.46;71.74;94902.81;5013968;28;1041;-45
2021/12/20 07:34:11;;;;;;;;;;;;;;;3.38;72.13;94910.50;5013779;28;1069;-45
2021/12/20 07:36:37;;;;;;;;;;;;;;;3.28;72.21;94899.84;5013930;28;979;-46
2021/12/20 07:39:04;;;;;;;;;;;;;;;3.09;72.80;94876.69;5013803;28;1906;-45
2021/12/20 07:41:30;;;;;;;;;;;;;;;3.39;71.46;94899.81;5013570;28;1030;-46
2021/12/20 07:43:56;;;;;;;;;;;;;;;3.43;71.44;94893.31;5013962;28;1054;-45
2021/12/20 07:46:22;;;;;;;;;;;;;;;3.61;71.36;94906.03;5013825;28;954;-45
2021/12/20 07:48:49;;;;;;;;;;;;;;;3.55;71.64;94911.78;5013875;28;1050;-46
2021/12/20 07:51:15;;;;;;;;;;;;;;;3.49;71.58;94915.78;5013397;28;1214;-45
2021/12/20 07:53:42;;;;;;;;;;;;;;;3.51;71.70;94913.88;5013574;28;1068;-44
2021/12/20 07:56:08;;;;;;;;;;;;;;;3.69;71.16;94915.00;5013534;28;1034;-44
2021/12/20 07:58:34;;;;;;;;;;;;;;;3.97;69.87;94918.03;5013733;28;2004;-45
2021/12/20 08:01:01;;;;;;;;;;;;;;;4.17;68.55;94912.91;5013580;28;1018;-45
2021/12/20 08:03:28;;;;;;;;;;;;;;;4.48;67.76;94904.06;5013637;28;994;-45
2021/12/20 08:05:54;;;;;;;;;;;;;;;4.83;66.68;94908.16;5013285;28;1204;-46
2021/12/20 08:08:20;;;;;;;;;;;;;;;5.18;65.62;94904.25;5013698;28;1010;-45
2021/12/20 08:10:46;;;;;;;;;;;;;;;5.45;64.71;94903.63;5016631;28;1209;-46
2021/12/20 08:13:13;;;;;;;;;;;;;;;5.61;64.41;94910.22;5053242;28;982;-45
2021/12/20 08:15:39;;;;;;;;;;;;;;;6.03;63.62;94916.19;5052873;28;1003;-46
2021/12/20 08:18:06;;;;;;;;;;;;;;;6.42;62.43;94916.16;5052995;28;1999;-45
2021/12/20 08:23:53;;;;;;;;;;;;;;;6.25;62.74;94915.06;2781760;28;2349;-47
2021/12/20 08:26:20;;;;;;;;;;;;;;;5.99;63.65;94908.63;5053060;28;947;-46
2021/12/20 08:28:46;;;;;;;;;;;;;;;5.76;63.91;94910.69;5053092;28;1025;-46
2021/12/20 08:31:12;;;;;;;;;;;;;;;5.70;63.71;94908.59;5052731;28;1209;-45
2021/12/20 08:33:38;;;;;;;;;;;;;;;5.37;64.24;94897.31;5053061;28;997;-45
2021/12/20 08:36:06;;;;;;;;;;;;;;;5.31;64.97;94898.69;5053044;28;983;-45
2021/12/20 08:38:33;;;;;;;;;;;;;;;5.30;65.31;94901.53;5052719;28;2003;-45
2021/12/20 08:40:59;;;;;;;;;;;;;;;5.02;65.54;94893.31;5056444;28;974;-45
2021/12/20 08:43:27;;;;;;;;;;;;;;;5.17;65.79;94891.16;5056868;28;1046;-45
2021/12/20 08:45:53;;;;;;;;;;;;;;;5.35;65.18;94891.31;5056329;28;992;-45
2021/12/20 08:48:19;;;;;;;;;;;;;;;5.52;64.68;94905.75;5056764;28;981;-45
2021/12/20 08:50:45;;;;;;;;;;;;;;;5.76;63.10;94908.03;5056253;28;1902;-46
2021/12/20 08:53:11;;;;;;;;;;;;;;;6.16;62.66;94910.59;5056560;28;999;-45
2021/12/20 08:55:38;;;;;;;;;;;;;;;6.31;62.10;94903.03;5056233;28;973;-45
2021/12/20 08:58:04;;;;;;;;;;;;;;;6.15;61.01;94908.09;5056513;28;1918;-46
2021/12/20 09:00:32;;;;;;;;;;;;;;;6.01;60.17;94896.91;5056172;28;1290;-45
2021/12/20 09:02:59;;;;;;;;;;;;;;;6.02;60.32;94898.59;5056448;28;1073;-45
2021/12/20 09:05:26;;;;;;;;;;;;;;;6.27;58.79;94892.84;5056376;28;1156;-45
2021/12/20 09:07:52;;;;;;;;;;;;;;;6.47;58.41;94886.53;5056244;28;982;-45
2021/12/20 09:10:18;;;;;;;;;;;;;;;7.08;57.45;94885.25;5056086;28;1017;-45
2021/12/20 09:12:46;;;;;;;;;;;;;;;8.87;53.15;94895.16;5019864;28;1159;-45
2021/12/20 09:15:15;;;;;;;;;;;;;;;9.70;49.88;94904.41;5016329;28;1069;-46
2021/12/20 09:17:41;;;;;;;;;;;;;;;10.09;48.15;94895.81;5016313;28;2005;-46
2021/12/20 09:20:08;;;;;;;;;;;;;;;9.50;48.48;94890.47;5016391;28;970;-45
2021/12/20 09:22:39;;;;;;;;;;;;;;;9.47;50.00;94893.50;5016194;28;970;-46
2021/12/20 09:25:05;;;;;;;;;;;;;;;13.90;40.64;94898.84;5015927;28;1343;-47
2021/12/20 09:27:32;;;;;;;;;;;;;;;16.90;36.05;94898.25;5016192;28;1117;-46
2021/12/20 09:29:58;;;;;;;;;;;;;;;19.15;31.74;94895.03;5016191;28;1033;-46
2021/12/20 09:32:24;;;;;;;;;;;;;;;21.02;28.80;94892.94;5016120;28;1069;-47
2021/12/20 09:34:50;;;;;;;;;;;;;;;19.94;28.47;94895.38;5016057;28;1021;-46
2021/12/20 09:37:16;;;;;;;;;;;;;;;20.53;28.04;94894.88;5015647;28;1918;-47
2021/12/20 09:39:42;;;;;;;;;;;;;;;16.27;32.98;94887.72;5016051;28;1009;-47
2021/12/20 09:42:09;;;;;;;;;;;;;;;12.47;39.41;94888.00;5015629;28;1042;-46
2021/12/20 09:44:36;;;;;;;;;;;;;;;11.19;42.37;94876.75;5015747;28;1032;-46
2021/12/20 09:47:03;;;;;;;;;;;;;;;10.19;45.14;94890.31;5015728;28;1076;-47
2021/12/20 09:49:29;;;;;;;;;;;;;;;8.87;47.48;94884.50;5015758;28;1891;-45
2021/12/20 09:51:57;;;;;;;;;;;;;;;8.00;49.75;94891.44;5014600;28;1006;-46
2021/12/20 09:54:23;;;;;;;;;;;;;;;7.61;50.81;94881.88;5015844;28;1100;-45
2021/12/20 09:56:52;;;;;;;;;;;;;;;7.50;51.40;94860.81;5015425;28;1024;-46
2021/12/20 09:59:19;;;;;;;;;;;;;;;8.18;50.24;94859.50;5015373;28;1907;-46
2021/12/20 10:01:45;;;;;;;;;;;;;;;10.43;44.41;94860.97;5015515;28;1038;-46
2021/12/20 10:04:11;;;;;;;;;;;;;;;8.78;47.47;94856.97;5015377;28;1046;-46
2021/12/20 10:06:38;;;;;;;;;;;;;;;7.86;49.95;94862.69;5015398;28;1026;-46
2021/12/20 10:09:12;;;;;;;;;;;;;;;7.43;50.55;94871.19;5015063;28;1058;-45
2021/12/20 10:11:38;;;;;;;;;;;;;;;8.38;49.84;94862.78;5032941;28;1183;-46
2021/12/20 10:14:06;;;;;;;;;;;;;;;10.40;45.47;94864.00;5054654;28;1021;-47
2021/12/20 10:16:34;;;;;;;;;;;;;;;10.15;45.82;94865.78;5055052;28;997;-45
2021/12/20 10:19:00;;;;;;;;;;;;;;;10.39;44.75;94856.13;5054515;28;1933;-47
2021/12/20 10:21:33;;;;;;;;;;;;;;;8.64;48.40;94860.19;5054715;28;1191;-46
2021/12/20 10:23:59;;;;;;;;;;;;;;;7.77;50.17;94862.59;5054475;28;1078;-47
2021/12/20 10:26:25;;;;;;;;;;;;;;;7.35;51.48;94860.47;5054950;28;974;-45
2021/12/20 10:28:52;;;;;;;;;;;;;;;7.12;52.46;94862.69;5054376;28;1089;-46
2021/12/20 10:31:19;;;;;;;;;;;;;;;7.10;52.92;94866.50;5054548;28;1030;-45
2021/12/20 10:33:56;;;;;;;;;;;;;;;6.90;53.25;94860.41;5054454;28;1049;-46
2021/12/20 10:36:22;;;;;;;;;;;;;;;7.43;51.91;94867.72;5054462;28;1054;-45
2021/12/20 10:38:56;;;;;;;;;;;;;;;7.87;50.68;94870.50;5054505;28;1983;-46
2021/12/20 10:41:32;;;;;;;;;;;;;;;7.18;52.88;94869.25;5054663;28;1122;-46
2021/12/20 10:44:01;;;;;;;;;;;;;;;7.51;52.88;94866.97;5054466;28;1032;-45
2021/12/20 10:46:29;;;;;;;;;;;;;;;9.88;48.08;94873.06;5054567;28;1008;-45
2021/12/20 10:49:03;;;;;;;;;;;;;;;12.28;41.53;94864.38;5054122;28;1320;-46
2021/12/20 10:51:31;;;;;;;;;;;;;;;9.84;46.40;94866.38;5054075;28;1189;-47
2021/12/20 10:54:01;;;;;;;;;;;;;;;8.33;49.68;94855.28;5054074;28;1045;-46
2021/12/20 10:56:37;;;;;;;;;;;;;;;7.48;52.01;94859.31;5054287;28;986;-45
2021/12/20 10:59:06;;;;;;;;;;;;;;;7.14;53.88;94855.41;5053929;28;1902;-46
2021/12/20 11:02:40;;;;;;;;;;;;;;;7.32;52.27;94854.63;5053911;28;974;-45
2021/12/20 11:04:47;;;;;;;;;;;;;;;8.95;48.75;94854.38;5053769;28;1590;-45
2021/12/20 11:09:52;;;;;;;;;;;;;;;7.73;51.07;94847.91;5053712;28;1052;-45
2021/12/20 11:12:23;;;;;;;;;;;;;;;7.24;52.77;94850.88;5024917;28;1903;-46
2021/12/20 11:14:51;;;;;;;;;;;;;;;7.29;52.83;94850.44;5014248;28;1021;-45
2021/12/20 11:17:18;;;;;;;;;;;;;;;7.31;53.26;94861.75;5014299;28;1995;-46
2021/12/20 11:19:45;;;;;;;;;;;;;;;8.42;51.12;94864.19;5014146;28;1025;-45
2021/12/20 11:22:12;;;;;;;;;;;;;;;9.42;48.35;94853.09;5014311;28;1022;-45
2021/12/20 11:24:40;;;;;;;;;;;;;;;8.81;49.67;94841.66;5013615;28;1293;-46
2021/12/20 11:27:14;;;;;;;;;;;;;;;8.30;50.89;94860.91;5014127;28;1079;-46
2021/12/20 11:29:41;;;;;;;;;;;;;;;7.89;50.81;94865.88;5013760;28;1026;-46
2021/12/20 11:32:08;;;;;;;;;;;;;;;7.65;51.84;94860.31;5013820;28;1034;-46
2021/12/20 11:34:34;;;;;;;;;;;;;;;7.41;51.75;94864.38;5013854;28;1050;-45
2021/12/20 11:37:00;;;;;;;;;;;;;;;7.22;52.59;94865.31;5013740;28;1101;-46
2021/12/20 11:39:26;;;;;;;;;;;;;;;7.08;52.87;94868.47;5013416;28;1903;-46
2021/12/20 11:41:52;;;;;;;;;;;;;;;7.15;52.31;94872.19;5013915;28;1004;-45
2021/12/20 11:44:21;;;;;;;;;;;;;;;7.46;51.20;94872.75;5013515;28;1038;-46
2021/12/20 11:46:51;;;;;;;;;;;;;;;7.87;50.66;94865.19;5013643;28;1109;-45
2021/12/20 11:49:19;;;;;;;;;;;;;;;7.95;51.92;94867.09;5013653;28;978;-45
2021/12/20 11:51:55;;;;;;;;;;;;;;;7.81;51.54;94869.28;5013612;28;986;-46
2021/12/20 11:54:40;;;;;;;;;;;;;;;8.05;51.56;94861.69;5013333;28;998;-45
2021/12/20 11:57:26;;;;;;;;;;;;;;;8.19;51.30;94858.47;5013746;28;1918;-46
2021/12/20 11:59:53;;;;;;;;;;;;;;;8.21;51.51;94862.69;5013619;28;1634;-46
2021/12/20 12:02:21;;;;;;;;;;;;;;;8.13;51.03;94867.09;5013519;28;1042;-46
2021/12/20 12:04:58;;;;;;;;;;;;;;;8.11;50.26;94861.91;5013180;28;1038;-46
2021/12/20 12:07:25;;;;;;;;;;;;;;;7.92;51.05;94873.56;5013612;28;979;-45
2021/12/20 12:09:58;;;;;;;;;;;;;;;7.67;50.24;94874.31;5013221;28;1251;-45
2021/12/20 12:12:28;;;;;;;;;;;;;;;7.22;52.47;94879.44;5043825;28;1214;-46
2021/12/20 12:15:04;;;;;;;;;;;;;;;6.98;52.66;94879.13;5037730;28;975;-46
2021/12/20 12:17:50;;;;;;;;;;;;;;;6.90;53.20;94882.50;5057052;28;1910;-45
2021/12/20 12:20:36;;;;;;;;;;;;;;;6.70;53.65;94889.72;5056741;28;1901;-45
2021/12/20 12:23:12;;;;;;;;;;;;;;;6.45;54.28;94907.94;5057216;28;1045;-45
2021/12/20 12:25:41;;;;;;;;;;;;;;;6.11;55.40;94920.81;5056561;28;1093;-45
2021/12/20 12:28:07;;;;;;;;;;;;;;;5.99;57.65;94929.88;5056842;28;1096;-46
2021/12/20 12:30:34;;;;;;;;;;;;;;;6.18;58.65;94916.59;5056709;28;1093;-45
2021/12/20 12:33:03;;;;;;;;;;;;;;;6.38;59.01;94898.84;5056779;28;1061;-45
2021/12/20 12:35:38;;;;;;;;;;;;;;;6.32;58.15;94893.25;5056961;28;1045;-45
2021/12/20 12:38:16;;;;;;;;;;;;;;;6.14;59.52;94896.63;5056510;28;1918;-46
2021/12/20 12:40:45;;;;;;;;;;;;;;;5.93;60.44;94904.69;5056721;28;1004;-45
2021/12/20 12:43:14;;;;;;;;;;;;;;;5.90;60.23;94894.38;5056806;28;978;-45
2021/12/20 12:45:52;;;;;;;;;;;;;;;5.90;60.51;94894.38;5056534;28;981;-45
2021/12/20 12:48:38;;;;;;;;;;;;;;;5.86;59.84;94885.84;5056867;28;981;-45
2021/12/20 12:51:05;;;;;;;;;;;;;;;5.92;59.07;94884.44;5056552;28;1017;-45
2021/12/20 12:53:38;;;;;;;;;;;;;;;5.83;59.33;94879.97;5056642;28;1149;-45
2021/12/20 12:56:22;;;;;;;;;;;;;;;5.81;58.71;94887.25;5056470;28;1034;-46
2021/12/20 12:59:07;;;;;;;;;;;;;;;5.65;59.58;94879.81;5056194;28;1995;-45
2021/12/20 13:01:33;;;;;;;;;;;;;;;5.66;59.09;94879.66;5056282;28;1078;-45
2021/12/20 13:03:59;;;;;;;;;;;;;;;5.69;58.22;94875.88;5056348;28;977;-44
2021/12/20 13:06:25;;;;;;;;;;;;;;;5.62;57.96;94886.22;5056186;28;1086;-46
2021/12/20 13:08:52;;;;;;;;;;;;;;;5.62;56.63;94883.56;5056117;28;1031;-46
2021/12/20 13:11:22;;;;;;;;;;;;;;;5.61;56.16;94887.19;5043821;28;1276;-45
2021/12/20 13:13:54;;;;;;;;;;;;;;;5.67;55.74;94889.31;5016316;28;930;-46
2021/12/20 13:16:26;;;;;;;;;;;;;;;5.65;55.93;94895.72;5016204;28;1053;-44
2021/12/20 13:18:53;;;;;;;;;;;;;;;5.71;55.71;94894.31;5016351;28;1981;-45
2021/12/20 13:21:35;;;;;;;;;;;;;;;5.70;55.23;94903.28;5016232;28;1030;-45
2021/12/20 13:24:12;;;;;;;;;;;;;;;5.86;54.27;94904.41;5015902;28;1653;-46
2021/12/20 13:26:38;;;;;;;;;;;;;;;5.96;53.66;94912.41;5016177;28;1062;-45